createdAt,value
2016-03-12T00:00:49.391Z,59.27
2016-03-12T00:01:49.393Z,59.18
2016-03-12T00:02:49.396Z,59.56
2016-03-12T00:03:49.399Z,59.56
2016-03-12T00:04:49.401Z,59.56
2016-03-12T00:05:49.404Z,59.37
2016-03-12T00:06:49.494Z,59.18
2016-03-12T00:07:49.396Z,59.56
2016-03-12T00:08:49.382Z,59.18
2016-03-12T00:09:49.385Z,59.37
2016-03-12T00:10:49.387Z,59.27
2016-03-12T00:11:49.391Z,59.56
2016-03-12T00:12:49.393Z,59.56
2016-03-12T00:13:49.381Z,59.66
2016-03-12T00:14:49.398Z,59.18
2016-03-12T00:15:49.386Z,59.56
2016-03-12T00:16:49.388Z,59.46
2016-03-12T00:17:49.392Z,59.46
2016-03-12T00:18:49.394Z,59.27
2016-03-12T00:19:49.381Z,59.37
2016-03-12T00:20:49.383Z,59.18
2016-03-12T00:21:49.370Z,60.13
2016-03-12T00:22:49.373Z,59.27
2016-03-12T00:23:49.391Z,60.03
2016-03-12T00:24:49.378Z,59.94
2016-03-12T00:25:49.381Z,59.75
2016-03-12T00:26:49.369Z,59.94
2016-03-12T00:27:49.386Z,60.03
2016-03-12T00:28:49.374Z,59.84
2016-03-12T00:29:49.376Z,59.75
2016-03-12T00:30:49.395Z,60.03
2016-03-12T00:31:49.382Z,60.22
2016-03-12T00:32:49.369Z,60.41
2016-03-12T00:33:49.371Z,60.41
2016-03-12T00:34:49.374Z,60.6
2016-03-12T00:35:49.361Z,60.31
2016-03-12T00:36:49.364Z,60.13
2016-03-12T00:37:49.366Z,60.03
2016-03-12T00:38:49.369Z,60.13
2016-03-12T00:39:49.372Z,60.89
2016-03-12T00:40:49.374Z,60.41
2016-03-12T00:41:49.377Z,60.7
2016-03-12T00:42:49.364Z,60.6
2016-03-12T00:43:49.351Z,60.79
2016-03-12T00:44:49.370Z,60.5
2016-03-12T00:45:49.373Z,60.79
2016-03-12T00:46:49.359Z,60.7
2016-03-12T00:47:49.347Z,60.5
2016-03-12T00:48:49.364Z,60.7
2016-03-12T00:49:49.353Z,60.79
2016-03-12T00:50:49.355Z,60.89
2016-03-12T00:51:49.358Z,61.27
2016-03-12T00:52:49.361Z,61.08
2016-03-12T00:53:49.348Z,61.46
2016-03-12T00:54:49.366Z,61.17
2016-03-12T00:55:49.353Z,61.27
2016-03-12T00:56:49.355Z,61.46
2016-03-12T00:57:49.358Z,61.65
2016-03-12T00:58:49.345Z,61.52
2016-03-12T00:59:49.347Z,61.36
2016-03-12T01:00:49.350Z,61.24
2016-03-12T01:01:49.353Z,61.27
2016-03-12T01:02:49.355Z,61.43
2016-03-12T01:03:49.358Z,61.99
2016-03-12T01:04:49.346Z,61.93
2016-03-12T01:05:49.348Z,61.52
2016-03-12T01:06:49.336Z,61.9
2016-03-12T01:07:49.385Z,61.9
2016-03-12T01:08:49.341Z,61.99
2016-03-12T01:09:49.343Z,61.9
2016-03-12T01:10:49.330Z,61.99
2016-03-12T01:11:49.349Z,61.99
2016-03-12T01:12:49.336Z,61.99
2016-03-12T01:13:49.338Z,62.18
2016-03-12T01:14:49.341Z,62.66
2016-03-12T01:15:49.328Z,62.47
2016-03-12T01:16:49.346Z,62.66
2016-03-12T01:17:49.334Z,62.37
2016-03-12T01:18:49.337Z,62.18
2016-03-12T01:19:49.339Z,62.75
2016-03-12T01:20:49.326Z,62.66
2016-03-12T01:21:49.329Z,62.37
2016-03-12T01:22:49.331Z,62.47
2016-03-12T01:23:49.319Z,62.66
2016-03-12T01:24:49.336Z,62.94
2016-03-12T01:25:49.324Z,62.85
2016-03-12T01:26:49.327Z,62.66
2016-03-12T01:27:49.314Z,62.94
2016-03-12T01:28:49.316Z,62.94
2016-03-12T01:29:49.319Z,62.85
2016-03-12T01:30:49.322Z,63.04
2016-03-12T01:31:49.325Z,63.04
2016-03-12T01:32:49.327Z,63.04
2016-03-12T01:33:49.314Z,63.6
2016-03-12T01:34:49.333Z,63.23
2016-03-12T01:35:49.319Z,63.42
2016-03-12T01:36:49.307Z,63.89
2016-03-12T01:37:49.324Z,63.42
2016-03-12T01:38:49.327Z,63.7
2016-03-12T01:39:49.315Z,63.98
2016-03-12T01:40:49.318Z,63.7
2016-03-12T01:41:49.304Z,64.27
2016-03-12T01:42:49.307Z,63.98
2016-03-12T01:43:49.309Z,63.98
2016-03-12T01:44:49.312Z,64.27
2016-03-12T01:45:49.299Z,64.74
2016-03-12T01:46:49.318Z,64.46
2016-03-12T01:47:49.304Z,64.27
2016-03-12T01:48:49.308Z,64.65
2016-03-12T01:49:49.295Z,65.03
2016-03-12T01:50:49.313Z,65.03
2016-03-12T01:51:49.315Z,65.5
2016-03-12T01:52:49.303Z,65.41
2016-03-12T01:53:49.290Z,65.12
2016-03-12T01:54:49.309Z,65.88
2016-03-12T01:55:49.311Z,65.69
2016-03-12T01:56:49.282Z,65.66
2016-03-12T01:57:49.300Z,65.78
2016-03-12T01:58:49.288Z,66.07
2016-03-12T01:59:49.291Z,66.45
2016-03-12T02:00:49.308Z,66.64
2016-03-12T02:01:49.296Z,66.74
2016-03-12T02:02:49.299Z,66.6
2016-03-12T02:03:49.286Z,66.35
2016-03-12T02:04:49.304Z,66.51
2016-03-12T02:05:49.275Z,66.7
2016-03-12T02:06:49.293Z,67.08
2016-03-12T02:07:49.281Z,66.89
2016-03-12T02:08:49.283Z,66.7
2016-03-12T02:09:49.286Z,67.46
2016-03-12T02:10:49.288Z,67.27
2016-03-12T02:11:49.276Z,67.65
2016-03-12T02:12:49.294Z,67.36
2016-03-12T02:13:49.297Z,67.46
2016-03-12T02:14:49.284Z,67.65
2016-03-12T02:15:49.287Z,67.46
2016-03-12T02:16:49.274Z,67.93
2016-03-12T02:17:49.308Z,67.65
2016-03-12T02:18:49.263Z,67.65
2016-03-12T02:19:49.265Z,67.65
2016-03-12T02:20:49.284Z,68.12
2016-03-12T02:21:49.303Z,68.02
2016-03-12T02:22:49.274Z,68.21
2016-03-12T02:23:49.120Z,67.83
2016-03-12T02:24:49.264Z,67.93
2016-03-12T02:25:49.266Z,68.12
2016-03-12T02:26:49.269Z,68.4
2016-03-12T02:27:49.256Z,68.5
2016-03-12T02:28:49.274Z,68.4
2016-03-12T02:29:49.262Z,68.59
2016-03-12T02:30:49.264Z,68.59
2016-03-12T02:31:49.252Z,69.07
2016-03-12T02:32:49.254Z,69.26
2016-03-12T02:33:49.257Z,69.35
2016-03-12T02:34:49.259Z,69.35
2016-03-12T02:35:49.263Z,69.54
2016-03-12T02:36:49.265Z,69.45
2016-03-12T02:37:49.268Z,69.92
2016-03-12T02:38:49.254Z,70.01
2016-03-12T02:39:49.257Z,70.2
2016-03-12T02:40:49.260Z,70.07
2016-03-12T02:41:49.246Z,69.98
2016-03-12T02:42:49.265Z,70.36
2016-03-12T02:43:49.237Z,70.45
2016-03-12T02:44:49.240Z,70.55
2016-03-12T02:45:49.257Z,70.26
2016-03-12T02:46:49.260Z,70.55
2016-03-12T02:47:49.247Z,71.02
2016-03-12T02:48:49.266Z,71.02
2016-03-12T02:49:49.237Z,71.31
2016-03-12T02:50:49.240Z,71.4
2016-03-12T02:51:49.242Z,71.59
2016-03-12T02:52:49.229Z,71.69
2016-03-12T02:53:49.247Z,71.59
2016-03-12T02:54:49.235Z,71.59
2016-03-12T02:55:49.237Z,71.78
2016-03-12T02:56:49.225Z,71.5
2016-03-12T02:57:49.243Z,71.59
2016-03-12T02:58:49.231Z,71.97
2016-03-12T02:59:49.233Z,71.97
2016-03-12T03:00:49.219Z,72.06
2016-03-12T03:01:49.222Z,72.06
2016-03-12T03:02:49.225Z,72.25
2016-03-12T03:03:49.228Z,71.97
2016-03-12T03:04:49.215Z,72.06
2016-03-12T03:05:49.233Z,72.16
2016-03-12T03:06:49.236Z,72.06
2016-03-12T03:07:49.224Z,71.97
2016-03-12T03:08:49.226Z,72.34
2016-03-12T03:09:49.229Z,72.34
2016-03-12T03:10:49.216Z,72.92
2016-03-12T03:11:49.219Z,72.82
2016-03-12T03:12:49.221Z,73.01
2016-03-12T03:13:49.207Z,73.01
2016-03-12T03:14:49.210Z,72.82
2016-03-12T03:15:49.213Z,72.63
2016-03-12T03:16:49.201Z,72.92
2016-03-12T03:17:49.218Z,72.92
2016-03-12T03:18:49.206Z,72.82
2016-03-12T03:19:49.192Z,73.01
2016-03-12T03:20:49.212Z,73.01
2016-03-12T03:21:49.214Z,73.3
2016-03-12T03:22:49.217Z,73.39
2016-03-12T03:23:49.204Z,73.39
2016-03-12T03:24:49.190Z,73.39
2016-03-12T03:25:49.209Z,73.68
2016-03-12T03:26:49.195Z,73.3
2016-03-12T03:27:49.214Z,72.82
2016-03-12T03:28:49.201Z,73.2
2016-03-12T03:29:49.189Z,73.86
2016-03-12T03:30:49.191Z,73.01
2016-03-12T03:31:49.194Z,73.11
2016-03-12T03:32:49.197Z,73.01
2016-03-12T03:33:49.184Z,73.01
2016-03-12T03:34:49.186Z,73.3
2016-03-12T03:35:49.189Z,73.11
2016-03-12T03:36:49.223Z,73.39
2016-03-12T03:37:49.194Z,73.11
2016-03-12T03:38:49.228Z,73.49
2016-03-12T03:39:49.184Z,73.39
2016-03-12T03:40:49.188Z,73.49
2016-03-12T03:41:49.174Z,73.49
2016-03-12T03:42:49.177Z,73.77
2016-03-12T03:43:49.163Z,73.77
2016-03-12T03:44:49.166Z,73.58
2016-03-12T03:45:49.169Z,73.86
2016-03-12T03:46:49.172Z,73.68
2016-03-12T03:47:49.174Z,73.86
2016-03-12T03:48:49.162Z,73.77
2016-03-12T03:49:49.165Z,73.68
2016-03-12T03:50:49.167Z,73.68
2016-03-12T03:51:49.184Z,73.77
2016-03-12T03:52:49.156Z,73.86
2016-03-12T03:53:49.159Z,74.24
2016-03-12T03:54:49.162Z,74.24
2016-03-12T03:55:49.148Z,74.62
2016-03-12T03:56:49.167Z,74.24
2016-03-12T03:57:49.154Z,74.24
2016-03-12T03:58:49.142Z,74.87
2016-03-12T03:59:49.159Z,74.77
2016-03-12T04:00:49.147Z,74.71
2016-03-12T04:01:49.150Z,74.4
2016-03-12T04:02:49.137Z,74.68
2016-03-12T04:03:49.139Z,74.58
2016-03-12T04:04:49.157Z,74.68
2016-03-12T04:05:49.130Z,74.58
2016-03-12T04:06:49.163Z,74.71
2016-03-12T04:07:49.150Z,74.81
2016-03-12T04:08:49.137Z,74.71
2016-03-12T04:09:49.124Z,74.24
2016-03-12T04:10:49.127Z,74.68
2016-03-12T04:11:49.130Z,74.81
2016-03-12T04:12:49.132Z,74.62
2016-03-12T04:13:49.119Z,74.87
2016-03-12T04:14:49.122Z,74.96
2016-03-12T04:15:49.124Z,75.28
2016-03-12T04:16:49.127Z,75.24
2016-03-12T04:17:49.129Z,75
2016-03-12T04:18:49.118Z,75.09
2016-03-12T04:19:49.120Z,75.19
2016-03-12T04:20:49.107Z,74.71
2016-03-12T04:21:49.125Z,74.33
2016-03-12T04:22:49.112Z,75.09
2016-03-12T04:23:49.115Z,74.9
2016-03-12T04:24:49.101Z,74.62
2016-03-12T04:25:49.105Z,74.71
2016-03-12T04:26:49.107Z,74.05
2016-03-12T04:27:49.110Z,74.15
2016-03-12T04:28:49.097Z,74.24
2016-03-12T04:29:49.100Z,74.9
2016-03-12T04:30:49.103Z,73.86
2016-03-12T04:31:49.090Z,73.68
2016-03-12T04:32:49.108Z,73.86
2016-03-12T04:33:49.094Z,73.58
2016-03-12T04:34:49.097Z,73.58
2016-03-12T04:35:49.100Z,73.49
2016-03-12T04:36:49.103Z,73.39
2016-03-12T04:37:49.090Z,72.92
2016-03-12T04:38:49.109Z,72.82
2016-03-12T04:39:49.096Z,73.11
2016-03-12T04:40:49.083Z,72.73
2016-03-12T04:41:49.085Z,72.67
2016-03-12T04:42:49.072Z,72.86
2016-03-12T04:43:49.075Z,72.57
2016-03-12T04:44:49.077Z,72.86
2016-03-12T04:45:49.080Z,72.96
2016-03-12T04:46:49.082Z,72.67
2016-03-12T04:47:49.071Z,72.67
2016-03-12T04:48:49.073Z,72.57
2016-03-12T04:49:49.091Z,72.29
2016-03-12T04:50:49.063Z,72.57
2016-03-12T04:51:49.066Z,72.48
2016-03-12T04:52:49.084Z,72.1
2016-03-12T04:53:49.054Z,72.86
2016-03-12T04:54:49.073Z,72
2016-03-12T04:55:49.076Z,72.19
2016-03-12T04:56:49.063Z,72.19
2016-03-12T04:57:49.066Z,71.81
2016-03-12T04:58:49.053Z,71.72
2016-03-12T04:59:49.056Z,71.81
2016-03-12T05:00:49.059Z,71.81
2016-03-12T05:01:49.045Z,72
2016-03-12T05:02:49.079Z,71.81
2016-03-12T05:03:49.051Z,71.91
2016-03-12T05:04:49.038Z,72
2016-03-12T05:05:49.041Z,71.81
2016-03-12T05:06:49.061Z,72.1
2016-03-12T05:07:49.048Z,72
2016-03-12T05:08:49.035Z,72.1
2016-03-12T05:09:49.037Z,72.57
2016-03-12T05:10:49.040Z,72
2016-03-12T05:11:49.026Z,72.86
2016-03-12T05:12:49.046Z,72.67
2016-03-12T05:13:49.032Z,72.57
2016-03-12T05:14:49.035Z,72.48
2016-03-12T05:15:49.037Z,72.48
2016-03-12T05:16:49.025Z,72.1
2016-03-12T05:17:49.022Z,72.1
2016-03-12T05:18:49.010Z,72.77
2016-03-12T05:19:49.000Z,72.57
2016-03-12T05:20:48.973Z,72.57
2016-03-12T05:21:48.962Z,72.38
2016-03-12T05:22:48.956Z,72.57
2016-03-12T05:23:48.938Z,72.67
2016-03-12T05:24:48.953Z,72.67
2016-03-12T05:25:48.934Z,72.67
2016-03-12T05:26:48.917Z,72.57
2016-03-12T05:27:48.917Z,72.29
2016-03-12T05:28:48.918Z,72.19
2016-03-12T05:29:48.918Z,72.38
2016-03-12T05:30:48.903Z,72.67
2016-03-12T05:31:48.904Z,72.57
2016-03-12T05:32:48.905Z,72.57
2016-03-12T05:33:48.907Z,72.57
2016-03-12T05:34:48.894Z,72.48
2016-03-12T05:35:48.910Z,72.57
2016-03-12T05:36:48.897Z,72.29
2016-03-12T05:37:48.900Z,72.48
2016-03-12T05:38:48.887Z,72.48
2016-03-12T05:39:48.889Z,72.38
2016-03-12T05:40:48.893Z,72.57
2016-03-12T05:41:48.895Z,72.38
2016-03-12T05:42:48.882Z,72.29
2016-03-12T05:43:48.884Z,72.77
2016-03-12T05:44:48.887Z,72.86
2016-03-12T05:45:48.890Z,72.77
2016-03-12T05:46:48.892Z,72.48
2016-03-12T05:47:48.879Z,72.57
2016-03-12T05:48:48.882Z,72.48
2016-03-12T05:49:48.885Z,72.67
2016-03-12T05:50:48.872Z,72.77
2016-03-12T05:51:48.874Z,72.67
2016-03-12T05:52:48.877Z,72.29
2016-03-12T05:53:48.864Z,72.29
2016-03-12T05:54:48.867Z,72.38
2016-03-12T05:55:48.869Z,72.29
2016-03-12T05:56:48.872Z,72.48
2016-03-12T05:57:48.875Z,72.29
2016-03-12T05:58:48.863Z,72.29
2016-03-12T05:59:48.865Z,72.29
2016-03-12T06:00:48.867Z,72.48
2016-03-12T06:01:48.855Z,72.38
2016-03-12T06:02:48.857Z,72.29
2016-03-12T06:03:48.845Z,72.38
2016-03-12T06:04:48.863Z,72.38
2016-03-12T06:05:48.851Z,72.29
2016-03-12T06:06:48.868Z,72.67
2016-03-12T06:07:48.856Z,72.57
2016-03-12T06:08:48.842Z,72.67
2016-03-12T06:09:48.845Z,72
2016-03-12T06:10:48.848Z,72.67
2016-03-12T06:11:48.834Z,72.67
2016-03-12T06:12:48.837Z,72.38
2016-03-12T06:13:48.839Z,72.67
2016-03-12T06:14:48.843Z,72.77
2016-03-12T06:15:48.845Z,72.1
2016-03-12T06:16:48.833Z,72
2016-03-12T06:17:48.851Z,72
2016-03-12T06:18:48.838Z,71.81
2016-03-12T06:19:48.825Z,72
2016-03-12T06:20:48.827Z,71.91
2016-03-12T06:21:48.830Z,72.1
2016-03-12T06:22:48.833Z,71.81
2016-03-12T06:23:48.852Z,72
2016-03-12T06:24:48.822Z,71.91
2016-03-12T06:25:48.825Z,72
2016-03-12T06:26:48.828Z,72.1
2016-03-12T06:27:48.816Z,71.91
2016-03-12T06:28:48.849Z,72.1
2016-03-12T06:29:48.821Z,72
2016-03-12T06:30:48.808Z,71.34
2016-03-12T06:31:48.826Z,71.53
2016-03-12T06:32:48.813Z,71.81
2016-03-12T06:33:48.815Z,71.53
2016-03-12T06:34:48.835Z,72
2016-03-12T06:35:48.806Z,71.72
2016-03-12T06:36:48.809Z,71.62
2016-03-12T06:37:48.795Z,71.44
2016-03-12T06:38:48.814Z,71.72
2016-03-12T06:39:48.801Z,71.91
2016-03-12T06:40:48.803Z,71.53
2016-03-12T06:41:48.806Z,71.81
2016-03-12T06:42:48.809Z,72
2016-03-12T06:43:48.656Z,71.91
2016-03-12T06:44:48.798Z,71.72
2016-03-12T06:45:48.801Z,72
2016-03-12T06:46:48.804Z,71.53
2016-03-12T06:47:48.807Z,71.62
2016-03-12T06:48:48.809Z,71.72
2016-03-12T06:49:48.796Z,71.38
2016-03-12T06:50:48.783Z,71.57
2016-03-12T06:51:48.786Z,71.47
2016-03-12T06:52:48.789Z,71.19
2016-03-12T06:53:48.775Z,71.09
2016-03-12T06:54:48.794Z,71.19
2016-03-12T06:55:48.781Z,71.09
2016-03-12T06:56:48.783Z,70.9
2016-03-12T06:57:48.786Z,71.09
2016-03-12T06:58:48.788Z,71
2016-03-12T06:59:48.792Z,71.19
2016-03-12T07:00:48.779Z,71.19
2016-03-12T07:01:48.782Z,71.09
2016-03-12T07:02:48.784Z,70.62
2016-03-12T07:03:48.771Z,70.9
2016-03-12T07:04:48.774Z,70.62
2016-03-12T07:05:48.761Z,70.62
2016-03-12T07:06:48.780Z,70.53
2016-03-12T07:07:48.782Z,70.62
2016-03-12T07:08:48.770Z,70.24
2016-03-12T07:09:48.772Z,70.15
2016-03-12T07:10:48.759Z,70.24
2016-03-12T07:11:48.762Z,70.15
2016-03-12T07:12:48.764Z,70.24
2016-03-12T07:13:48.767Z,70.62
2016-03-12T07:14:48.753Z,70.53
2016-03-12T07:15:48.757Z,69.67
2016-03-12T07:16:48.759Z,69.77
2016-03-12T07:17:48.778Z,69.96
2016-03-12T07:18:48.765Z,69.96
2016-03-12T07:19:48.753Z,69.77
2016-03-12T07:20:48.786Z,69.77
2016-03-12T07:21:48.757Z,69.77
2016-03-12T07:22:48.791Z,70.05
2016-03-12T07:23:48.747Z,69.67
2016-03-12T07:24:48.750Z,69.96
2016-03-12T07:25:48.752Z,69.96
2016-03-12T07:26:48.739Z,69.38
2016-03-12T07:27:48.742Z,69.67
2016-03-12T07:28:48.745Z,69.48
2016-03-12T07:29:48.747Z,69.67
2016-03-12T07:30:48.735Z,69.38
2016-03-12T07:31:48.753Z,69.1
2016-03-12T07:32:48.740Z,69.29
2016-03-12T07:33:48.743Z,69.57
2016-03-12T07:34:48.745Z,69.2
2016-03-12T07:35:48.749Z,68.82
2016-03-12T07:36:48.735Z,68.44
2016-03-12T07:37:48.801Z,68.63
2016-03-12T07:38:48.740Z,68.44
2016-03-12T07:39:48.743Z,68.63
2016-03-12T07:40:48.731Z,68.44
2016-03-12T07:41:48.733Z,68.63
2016-03-12T07:42:48.737Z,68.15
2016-03-12T07:43:48.723Z,68.54
2016-03-12T07:44:48.726Z,68.63
2016-03-12T07:45:48.728Z,68.48
2016-03-12T07:46:48.731Z,68.73
2016-03-12T07:47:48.734Z,68.38
2016-03-12T07:48:48.720Z,68.57
2016-03-12T07:49:48.723Z,67.9
2016-03-12T07:50:48.725Z,68
2016-03-12T07:51:48.713Z,68.19
2016-03-12T07:52:48.763Z,68.1
2016-03-12T07:53:48.718Z,68.1
2016-03-12T07:54:48.722Z,68
2016-03-12T07:55:48.724Z,68.1
2016-03-12T07:56:48.711Z,68.1
2016-03-12T07:57:48.713Z,68.19
2016-03-12T07:58:48.716Z,67.9
2016-03-12T07:59:48.719Z,68.19
2016-03-12T08:00:48.721Z,68.48
2016-03-12T08:01:48.724Z,68
2016-03-12T08:02:48.710Z,67.52
2016-03-12T08:03:48.699Z,67.71
2016-03-12T08:04:48.716Z,67.9
2016-03-12T08:05:48.704Z,67.71
2016-03-12T08:06:48.707Z,67.52
2016-03-12T08:07:48.569Z,67.52
2016-03-12T08:08:48.696Z,67.43
2016-03-12T08:09:48.715Z,67.33
2016-03-12T08:10:48.701Z,67.43
2016-03-12T08:11:48.720Z,66.86
2016-03-12T08:12:48.692Z,67.14
2016-03-12T08:13:48.695Z,67.33
2016-03-12T08:14:48.697Z,67.33
2016-03-12T08:15:48.715Z,66.96
2016-03-12T08:16:48.703Z,66.86
2016-03-12T08:17:48.705Z,66.29
2016-03-12T08:18:48.692Z,66.99
2016-03-12T08:19:48.695Z,66.48
2016-03-12T08:20:48.697Z,66.48
2016-03-12T08:21:48.700Z,66.1
2016-03-12T08:22:48.703Z,66.77
2016-03-12T08:23:48.689Z,66.67
2016-03-12T08:24:48.692Z,66.42
2016-03-12T08:25:48.680Z,66.52
2016-03-12T08:26:48.682Z,66.04
2016-03-12T08:27:48.700Z,65.95
2016-03-12T08:28:48.688Z,66.04
2016-03-12T08:29:48.690Z,66.04
2016-03-12T08:30:48.694Z,65.75
2016-03-12T08:31:48.696Z,65.66
2016-03-12T08:32:48.683Z,64.81
2016-03-12T08:33:48.685Z,64.71
2016-03-12T08:34:48.688Z,64.05
2016-03-12T08:35:48.691Z,64.05
2016-03-12T08:36:48.693Z,64.62
2016-03-12T08:37:48.712Z,64.24
2016-03-12T08:38:48.683Z,63.86
2016-03-12T08:39:48.671Z,63.39
2016-03-12T08:40:48.673Z,63.76
2016-03-12T08:41:48.676Z,63.86
2016-03-12T08:42:48.679Z,63.67
2016-03-12T08:43:48.681Z,62.94
2016-03-12T08:44:48.683Z,62.94
2016-03-12T08:45:48.686Z,63.04
2016-03-12T08:46:48.673Z,62.66
2016-03-12T08:47:48.676Z,62.37
2016-03-12T08:48:48.678Z,62.46
2016-03-12T08:49:48.728Z,62.46
2016-03-12T08:50:48.684Z,62.56
2016-03-12T08:51:48.687Z,62.18
2016-03-12T08:52:48.674Z,62.66
2016-03-12T08:53:48.692Z,62.85
2016-03-12T08:54:48.680Z,63.04
2016-03-12T08:55:48.682Z,62.66
2016-03-12T08:56:48.700Z,62.46
2016-03-12T08:57:48.671Z,62.37
2016-03-12T08:58:48.675Z,61.9
2016-03-12T08:59:48.677Z,61.33
2016-03-12T09:00:48.664Z,61.9
2016-03-12T09:01:48.682Z,62.18
2016-03-12T09:02:48.669Z,62.46
2016-03-12T09:03:48.688Z,62.27
2016-03-12T09:04:48.674Z,61.9
2016-03-12T09:05:48.678Z,61.8
2016-03-12T09:06:48.665Z,61.9
2016-03-12T09:07:47.933Z,61.42
2016-03-12T09:08:48.685Z,60.95
2016-03-12T09:09:48.673Z,60.85
2016-03-12T09:10:48.676Z,60.95
2016-03-12T09:11:48.662Z,61.71
2016-03-12T09:12:48.665Z,61.61
2016-03-12T09:13:48.667Z,61.61
2016-03-12T09:14:48.671Z,61.61
2016-03-12T09:15:48.673Z,61.9
2016-03-12T09:16:48.676Z,61.99
2016-03-12T09:17:48.679Z,61.71
2016-03-12T09:18:48.681Z,61.42
2016-03-12T09:19:48.668Z,61.52
2016-03-12T09:20:48.687Z,61.71
2016-03-12T09:21:48.518Z,61.42
2016-03-12T09:22:48.676Z,61.71
2016-03-12T09:23:48.664Z,61.61
2016-03-12T09:24:48.666Z,61.52
2016-03-12T09:25:48.513Z,61.61
2016-03-12T09:26:48.672Z,61.52
2016-03-12T09:27:48.658Z,60.95
2016-03-12T09:28:48.678Z,60.95
2016-03-12T09:29:48.680Z,60.85
2016-03-12T09:30:48.667Z,60.85
2016-03-12T09:31:48.669Z,60.57
2016-03-12T09:32:48.672Z,60.76
2016-03-12T09:33:48.691Z,61.33
2016-03-12T09:34:48.677Z,61.52
2016-03-12T09:35:48.664Z,61.61
2016-03-12T09:36:48.667Z,61.52
2016-03-12T09:37:48.670Z,61.33
2016-03-12T09:38:48.673Z,61.52
2016-03-12T09:39:48.518Z,61.04
2016-03-12T09:40:48.679Z,61.14
2016-03-12T09:41:48.524Z,61.42
2016-03-12T09:42:48.683Z,61.14
2016-03-12T09:43:48.514Z,60.95
2016-03-12T09:44:48.673Z,60.95
2016-03-12T09:45:48.676Z,60.47
2016-03-12T09:46:48.709Z,60.28
2016-03-12T09:47:48.681Z,60.19
2016-03-12T09:48:48.668Z,60.28
2016-03-12T09:49:48.687Z,59.81
2016-03-12T09:50:48.673Z,60.19
2016-03-12T09:51:48.520Z,60.28
2016-03-12T09:52:48.679Z,60.57
2016-03-12T09:53:48.681Z,61.14
2016-03-12T09:54:48.684Z,61.04
2016-03-12T09:55:48.687Z,60.66
2016-03-12T09:56:48.674Z,60.41
2016-03-12T09:57:48.677Z,60.28
2016-03-12T09:58:48.679Z,60.47
2016-03-12T09:59:48.525Z,60.03
2016-03-12T10:00:48.669Z,59.74
2016-03-12T10:01:48.672Z,59.55
2016-03-12T10:02:48.674Z,59.17
2016-03-12T10:03:48.677Z,58.89
2016-03-12T10:04:48.680Z,58.89
2016-03-12T10:05:48.682Z,58.7
2016-03-12T10:06:48.773Z,58.61
2016-03-12T10:07:48.682Z,58.32
2016-03-12T10:08:48.685Z,57.94
2016-03-12T10:09:48.687Z,57.68
2016-03-12T10:10:48.690Z,58.06
2016-03-12T10:11:48.678Z,57.59
2016-03-12T10:12:48.695Z,57.21
2016-03-12T10:13:48.683Z,57.11
2016-03-12T10:14:48.686Z,56.63
2016-03-12T10:15:48.673Z,56.92
2016-03-12T10:16:48.675Z,57.21
2016-03-12T10:17:48.694Z,57.84
2016-03-12T10:18:48.681Z,58.22
2016-03-12T10:19:48.683Z,58.32
2016-03-12T10:20:48.686Z,58.13
2016-03-12T10:21:48.689Z,58.06
2016-03-12T10:22:48.692Z,58.06
2016-03-12T10:23:48.694Z,57.97
2016-03-12T10:24:48.696Z,57.87
2016-03-12T10:25:48.683Z,57.3
2016-03-12T10:26:48.702Z,56.83
2016-03-12T10:27:48.705Z,56.54
2016-03-12T10:28:48.691Z,56.54
2016-03-12T10:29:48.695Z,56.35
2016-03-12T10:30:48.682Z,56.16
2016-03-12T10:31:48.684Z,56.45
2016-03-12T10:32:48.702Z,56.73
2016-03-12T10:33:48.690Z,56.83
2016-03-12T10:34:48.692Z,56.54
2016-03-12T10:35:48.695Z,56.63
2016-03-12T10:36:48.697Z,56.83
2016-03-12T10:37:48.695Z,56.16
2016-03-12T10:38:48.697Z,56.45
2016-03-12T10:39:48.700Z,55.88
2016-03-12T10:40:48.702Z,56.07
2016-03-12T10:41:48.706Z,56.07
2016-03-12T10:42:48.708Z,56.45
2016-03-12T10:43:48.695Z,56.26
2016-03-12T10:44:48.714Z,56.35
2016-03-12T10:45:48.731Z,56.26
2016-03-12T10:46:48.702Z,56.54
2016-03-12T10:47:48.722Z,56.54
2016-03-12T10:48:48.708Z,55.62
2016-03-12T10:49:48.711Z,55.15
2016-03-12T10:50:48.714Z,54.67
2016-03-12T10:51:48.701Z,54.86
2016-03-12T10:52:48.719Z,54.48
2016-03-12T10:53:48.752Z,54.19
2016-03-12T10:54:48.725Z,54.29
2016-03-12T10:55:48.727Z,54.1
2016-03-12T10:56:48.715Z,54
2016-03-12T10:57:48.717Z,54.1
2016-03-12T10:58:48.704Z,53.63
2016-03-12T10:59:48.707Z,53.34
2016-03-12T11:00:48.725Z,53.27
2016-03-12T11:01:48.712Z,53.17
2016-03-12T11:02:48.714Z,52.89
2016-03-12T11:03:48.718Z,52.32
2016-03-12T11:04:48.720Z,52.22
2016-03-12T11:05:48.723Z,53.15
2016-03-12T11:06:48.726Z,53.63
2016-03-12T11:07:48.712Z,53.53
2016-03-12T11:08:48.715Z,53.24
2016-03-12T11:09:48.717Z,53.27
2016-03-12T11:10:48.737Z,52.32
2016-03-12T11:11:48.723Z,51.93
2016-03-12T11:12:48.758Z,51.84
2016-03-12T11:13:48.728Z,51.46
2016-03-12T11:14:48.731Z,51.46
2016-03-12T11:15:48.734Z,51.65
2016-03-12T11:16:48.721Z,51.84
2016-03-12T11:17:48.740Z,51.75
2016-03-12T11:18:48.727Z,51.84
2016-03-12T11:19:48.744Z,52.2
2016-03-12T11:20:48.732Z,52.03
2016-03-12T11:21:48.777Z,51.93
2016-03-12T11:22:48.815Z,52.1
2016-03-12T11:23:48.645Z,51.93
2016-03-12T11:24:53.404Z,52.2
2016-03-12T11:25:48.749Z,52.01
2016-03-12T11:26:48.735Z,52.48
2016-03-12T11:27:48.785Z,52.86
2016-03-12T11:28:48.741Z,52.1
2016-03-12T11:29:48.760Z,51.65
2016-03-12T11:30:48.605Z,51.84
2016-03-12T11:31:48.748Z,51.75
2016-03-12T11:32:48.768Z,51.46
2016-03-12T11:33:48.754Z,51.37
2016-03-12T11:34:48.757Z,50.89
2016-03-12T11:35:48.760Z,50.79
2016-03-12T11:36:48.762Z,51.18
2016-03-12T11:37:48.765Z,51.56
2016-03-12T11:38:48.767Z,51.37
2016-03-12T11:39:48.755Z,51.56
2016-03-12T11:40:48.773Z,51.37
2016-03-12T11:41:48.760Z,51.65
2016-03-12T11:42:48.762Z,50.99
2016-03-12T11:43:48.765Z,51.56
2016-03-12T11:44:48.768Z,51.46
2016-03-12T11:45:48.770Z,51.56
2016-03-12T11:46:48.774Z,51.93
2016-03-12T11:47:48.792Z,51.27
2016-03-12T11:48:48.795Z,51.56
2016-03-12T11:49:48.781Z,51.84
2016-03-12T11:50:48.784Z,51.75
2016-03-12T11:51:48.787Z,51.84
2016-03-12T11:52:48.789Z,51.75
2016-03-12T11:53:48.839Z,52.03
2016-03-12T11:54:48.795Z,51.65
2016-03-12T11:55:48.782Z,51.65
2016-03-12T11:56:48.800Z,51.56
2016-03-12T11:57:48.788Z,51.18
2016-03-12T11:58:48.791Z,51.18
2016-03-12T11:59:48.793Z,51.18
2016-03-12T12:00:48.796Z,51.27
2016-03-12T12:01:48.799Z,50.99
2016-03-12T12:02:48.802Z,51.65
2016-03-12T12:03:48.804Z,51.08
2016-03-12T12:04:48.806Z,51.46
2016-03-12T12:05:48.809Z,51.65
2016-03-12T12:06:48.812Z,51.75
2016-03-12T12:07:48.814Z,51.65
2016-03-12T12:08:48.865Z,51.75
2016-03-12T12:09:48.820Z,51.65
2016-03-12T12:10:48.807Z,51.56
2016-03-12T12:11:48.825Z,51.46
2016-03-12T12:12:48.828Z,51.93
2016-03-12T12:13:48.815Z,51.27
2016-03-12T12:14:48.833Z,51.84
2016-03-12T12:15:48.820Z,51.82
2016-03-12T12:16:48.823Z,51.72
2016-03-12T12:17:48.841Z,52.13
2016-03-12T12:18:48.828Z,51.91
2016-03-12T12:19:48.831Z,51.91
2016-03-12T12:20:48.850Z,52.1
2016-03-12T12:21:48.837Z,51.56
2016-03-12T12:22:48.855Z,51.65
2016-03-12T12:23:48.858Z,51.91
2016-03-12T12:24:48.845Z,52.39
2016-03-12T12:25:48.831Z,53.05
2016-03-12T12:26:48.849Z,53.05
2016-03-12T12:27:48.853Z,52.96
2016-03-12T12:28:48.839Z,52.67
2016-03-12T12:29:48.858Z,52.29
2016-03-12T12:30:48.861Z,52.96
2016-03-12T12:31:48.847Z,53.15
2016-03-12T12:32:48.850Z,53.05
2016-03-12T12:33:48.852Z,52.29
2016-03-12T12:34:48.700Z,51.93
2016-03-12T12:35:48.858Z,51.27
2016-03-12T12:36:48.861Z,51.46
2016-03-12T12:37:48.863Z,51.56
2016-03-12T12:38:48.866Z,51.75
2016-03-12T12:39:48.868Z,51.93
2016-03-12T12:40:48.871Z,51.46
2016-03-12T12:41:48.874Z,51.27
2016-03-12T12:42:48.877Z,50.13
2016-03-12T12:43:48.864Z,50.51
2016-03-12T12:44:48.882Z,50.96
2016-03-12T12:45:48.870Z,51.34
2016-03-12T12:46:48.872Z,51.72
2016-03-12T12:47:48.875Z,51.91
2016-03-12T12:48:48.908Z,52.39
2016-03-12T12:49:48.881Z,52.86
2016-03-12T12:50:48.883Z,53.15
2016-03-12T12:51:48.901Z,52.86
2016-03-12T12:52:48.889Z,52.86
2016-03-12T12:53:49.016Z,52.96
2016-03-12T12:54:48.909Z,52.86
2016-03-12T12:55:48.897Z,53.43
2016-03-12T12:56:49.212Z,53.5